createdAt,value
2023-05-14T00:14:24.427Z,8.71
2023-05-14T00:29:26.012Z,8.69
2023-05-14T00:44:27.595Z,8.68
2023-05-14T00:59:29.229Z,8.63
2023-05-14T01:14:30.854Z,8.33
2023-05-14T01:29:32.447Z,7.94
2023-05-14T01:44:34.255Z,7.94
2023-05-14T01:59:36.196Z,7.81
2023-05-14T02:14:37.833Z,7.72
2023-05-14T02:29:39.705Z,7.92
2023-05-14T02:44:41.348Z,7.90
2023-05-14T02:59:42.973Z,7.85
2023-05-14T03:14:44.987Z,7.83
2023-05-14T03:29:46.937Z,7.94
2023-05-14T03:44:48.552Z,7.95
2023-05-14T03:59:50.642Z,7.88
2023-05-14T04:14:52.346Z,7.94
2023-05-14T04:29:54.140Z,7.96
2023-05-14T04:44:55.830Z,8.05
2023-05-14T04:59:57.562Z,8.17
2023-05-14T05:14:59.213Z,8.27
2023-05-14T05:30:00.906Z,8.77
2023-05-14T05:45:02.564Z,8.80
2023-05-14T06:00:13.200Z,8.95
2023-05-14T06:15:14.734Z,9.92
2023-05-14T06:30:16.416Z,10.39
2023-05-14T06:45:18.063Z,10.84
2023-05-14T07:00:19.887Z,11.46
2023-05-14T07:15:21.724Z,11.76
2023-05-14T07:30:23.511Z,12.14
2023-05-14T07:45:25.427Z,14.35
2023-05-14T08:00:27.299Z,15.99
2023-05-14T08:15:28.981Z,18.23
2023-05-14T08:30:30.612Z,16.20
2023-05-14T08:45:34.369Z,14.33
2023-05-14T09:00:36.045Z,13.77
2023-05-14T09:15:37.627Z,13.65
2023-05-14T09:30:39.267Z,14.13
2023-05-14T09:45:40.907Z,13.54
2023-05-14T10:00:42.620Z,13.70
2023-05-14T10:15:44.313Z,14.26
2023-05-14T10:30:46.435Z,14.14
2023-05-14T10:45:48.083Z,14.12
2023-05-14T11:00:50.268Z,14.29
2023-05-14T11:15:51.919Z,13.75
2023-05-14T11:30:53.562Z,14.10
2023-05-14T11:45:55.196Z,14.17
2023-05-14T12:00:57.166Z,14.75
2023-05-14T12:15:58.833Z,15.38
2023-05-14T12:31:00.541Z,15.71
2023-05-14T12:46:02.159Z,16.04
2023-05-14T13:01:03.862Z,16.24
2023-05-14T13:16:05.458Z,16.31
2023-05-14T13:31:07.253Z,15.83
2023-05-14T13:46:09.034Z,14.72
2023-05-14T14:01:10.702Z,15.18
2023-05-14T14:16:12.357Z,14.90
2023-05-14T14:31:14.080Z,14.94
2023-05-14T14:46:15.860Z,15.20
2023-05-14T15:01:17.499Z,15.59
2023-05-14T15:16:19.280Z,15.24
2023-05-14T15:31:21.041Z,15.14
2023-05-14T15:46:25.932Z,14.89
2023-05-14T16:01:27.637Z,15.06
2023-05-14T16:16:29.306Z,15.03
2023-05-14T16:31:31.714Z,14.92
2023-05-14T16:46:33.442Z,15.00
2023-05-14T17:01:35.213Z,14.76
2023-05-14T17:16:38.908Z,14.72
2023-05-14T17:31:40.788Z,14.51
2023-05-14T17:46:42.590Z,14.35
2023-05-14T18:01:44.219Z,13.89
2023-05-14T18:16:45.938Z,13.42
2023-05-14T18:31:47.584Z,12.77
2023-05-14T18:46:49.272Z,12.28
2023-05-14T19:01:51.463Z,11.89
2023-05-14T19:16:53.127Z,11.73
2023-05-14T19:31:54.781Z,11.34
2023-05-14T19:46:56.494Z,11.04
2023-05-14T20:01:58.173Z,10.96
2023-05-14T20:17:00.168Z,11.16
2023-05-14T20:32:01.855Z,11.04
2023-05-14T20:47:03.546Z,10.84
2023-05-14T21:02:05.202Z,10.50
2023-05-14T21:17:07.001Z,10.38
2023-05-14T21:32:08.612Z,11.00
2023-05-14T21:47:10.242Z,11.13
2023-05-14T22:02:11.882Z,11.00
2023-05-14T22:17:13.515Z,10.70
2023-05-14T22:32:15.110Z,10.30
2023-05-14T22:47:16.732Z,10.44
2023-05-14T23:02:18.344Z,10.50
2023-05-14T23:17:19.931Z,10.04
2023-05-14T23:32:21.560Z,9.74
2023-05-14T23:47:23.194Z,9.49
